createdAt,value
2022-09-28T00:01:59.553Z,94825.13
2022-09-28T00:04:26.310Z,94827.13
2022-09-28T00:06:53.007Z,94824.19
2022-09-28T00:09:19.576Z,94828.19
2022-09-28T00:11:46.968Z,94828.00
2022-09-28T00:14:13.842Z,94830.78
2022-09-28T00:16:43.723Z,94833.97
2022-09-28T00:19:12.660Z,94825.75
2022-09-28T00:21:40.871Z,94814.00
2022-09-28T00:24:17.397Z,94814.25
2022-09-28T00:26:50.083Z,94830.41
2022-09-28T00:29:30.133Z,94815.53
2022-09-28T00:32:03.048Z,94826.91
2022-09-28T00:34:32.452Z,94836.56
2022-09-28T00:37:00.310Z,94835.75
2022-09-28T00:39:27.223Z,94839.88
2022-09-28T00:41:54.628Z,94844.91
2022-09-28T00:44:27.036Z,94840.50
2022-09-28T00:47:01.831Z,94841.16
2022-09-28T00:49:48.547Z,94836.41
2022-09-28T00:52:25.626Z,94840.31
2022-09-28T00:54:53.363Z,94831.63
2022-09-28T00:57:22.895Z,94826.72
2022-09-28T00:59:51.310Z,94822.22
2022-09-28T01:02:19.444Z,94824.25
2022-09-28T01:04:46.432Z,94824.41
2022-09-28T01:07:13.731Z,94821.94
2022-09-28T01:09:40.816Z,94832.97
2022-09-28T01:12:08.178Z,94838.97
2022-09-28T01:14:35.036Z,94827.47
2022-09-28T01:17:22.027Z,94820.41
2022-09-28T01:20:07.081Z,94817.19
2022-09-28T01:23:13.915Z,94809.13
2022-09-28T01:26:09.604Z,94793.78
2022-09-28T01:28:36.620Z,94806.44
2022-09-28T01:31:11.296Z,94797.81
2022-09-28T01:33:42.988Z,94797.28
2022-09-28T01:36:19.375Z,94779.13
2022-09-28T01:38:59.999Z,94782.25
2022-09-28T01:41:31.624Z,94776.19
2022-09-28T01:44:03.071Z,94777.63
2022-09-28T01:46:38.479Z,94751.41
2022-09-28T01:49:22.659Z,94760.13
2022-09-28T01:52:00.840Z,94769.16
2022-09-28T01:54:47.124Z,94770.59
2022-09-28T01:57:49.520Z,94764.31
2022-09-28T02:00:18.489Z,94748.84
2022-09-28T02:02:48.571Z,94737.59
2022-09-28T02:05:28.714Z,94733.03
2022-09-28T02:08:26.918Z,94737.06
2022-09-28T02:11:02.972Z,94736.97
2022-09-28T02:13:40.835Z,94734.38
2022-09-28T02:16:16.395Z,94720.06
2022-09-28T02:18:43.978Z,94711.97
2022-09-28T02:21:18.967Z,94704.09
2022-09-28T02:24:06.860Z,94694.94
2022-09-28T02:26:39.208Z,94699.06
2022-09-28T02:29:05.866Z,94693.25
2022-09-28T02:31:32.719Z,94697.16
2022-09-28T02:33:59.449Z,94684.69
2022-09-28T02:36:28.647Z,94677.69
2022-09-28T02:38:57.311Z,94674.78
2022-09-28T02:41:39.825Z,94678.13
2022-09-28T02:44:12.018Z,94689.31
2022-09-28T02:46:45.539Z,94689.06
2022-09-28T02:49:33.702Z,94700.25
2022-09-28T02:52:06.306Z,94715.34
2022-09-28T02:54:47.330Z,94717.91
2022-09-28T02:57:19.758Z,94712.91
2022-09-28T02:59:49.280Z,94703.06
2022-09-28T03:02:34.931Z,94682.31
2022-09-28T03:05:06.362Z,94667.41
2022-09-28T03:07:40.114Z,94637.19
2022-09-28T03:10:45.006Z,94644.25
2022-09-28T03:13:13.344Z,94640.03
2022-09-28T03:15:45.250Z,94630.38
2022-09-28T03:18:14.514Z,94638.66
2022-09-28T03:20:41.074Z,94636.19
2022-09-28T03:23:35.855Z,94639.97
2022-09-28T03:25:54.849Z,94628.75
2022-09-28T03:28:22.033Z,94621.41
2022-09-28T03:30:49.142Z,94619.06
2022-09-28T03:33:15.796Z,94609.38
2022-09-28T03:35:42.451Z,94607.03
2022-09-28T03:38:09.007Z,94594.88
2022-09-28T03:40:35.634Z,94589.22
2022-09-28T03:43:02.233Z,94596.25
2022-09-28T03:45:28.867Z,94593.91
2022-09-28T03:47:55.542Z,94596.31
2022-09-28T03:50:22.111Z,94594.16
2022-09-28T03:52:48.958Z,94594.63
2022-09-28T03:55:15.520Z,94588.88
2022-09-28T03:57:42.102Z,94582.56
2022-09-28T04:00:09.831Z,94588.44
2022-09-28T04:02:36.494Z,94569.66
2022-09-28T04:05:03.974Z,94565.03
2022-09-28T04:07:31.345Z,94554.38
2022-09-28T04:09:58.250Z,94549.03
2022-09-28T04:12:24.801Z,94538.19
2022-09-28T04:14:51.382Z,94535.13
2022-09-28T04:17:17.964Z,94536.16
2022-09-28T04:19:44.534Z,94521.41
2022-09-28T04:22:11.099Z,94526.22
2022-09-28T04:24:37.673Z,94516.28
2022-09-28T04:27:22.829Z,94508.06
2022-09-28T04:29:49.394Z,94502.94
2022-09-28T04:32:16.013Z,94507.22
2022-09-28T04:34:44.305Z,94492.81
2022-09-28T04:37:11.190Z,94485.25
2022-09-28T04:39:38.007Z,94492.31
2022-09-28T04:42:04.648Z,94484.53
2022-09-28T04:44:31.245Z,94480.94
2022-09-28T04:47:00.676Z,94476.47
2022-09-28T04:49:31.211Z,94478.03
2022-09-28T04:51:57.783Z,94469.75
2022-09-28T04:54:24.335Z,94475.56
2022-09-28T04:56:51.991Z,94475.50
2022-09-28T04:59:18.700Z,94470.25
2022-09-28T05:01:45.313Z,94466.06
2022-09-28T05:04:11.869Z,94468.28
2022-09-28T05:06:38.456Z,94460.72
2022-09-28T05:09:05.079Z,94445.63
2022-09-28T05:11:31.646Z,94455.34
2022-09-28T05:13:58.226Z,94451.09
2022-09-28T05:16:26.303Z,94451.44
2022-09-28T05:18:56.603Z,94444.78
2022-09-28T05:21:25.416Z,94441.63
2022-09-28T05:23:52.593Z,94435.97
2022-09-28T05:26:19.317Z,94428.28
2022-09-28T05:28:45.958Z,94432.53
2022-09-28T05:31:12.667Z,94425.78
2022-09-28T05:33:39.623Z,94428.44
2022-09-28T05:36:09.790Z,94420.56
2022-09-28T05:38:36.662Z,94415.88
2022-09-28T05:41:06.608Z,94428.34
2022-09-28T05:43:33.680Z,94434.09
2022-09-28T05:46:00.611Z,94439.31
2022-09-28T05:48:28.369Z,94450.22
2022-09-28T05:50:55.622Z,94439.44
2022-09-28T05:53:22.257Z,94435.47
2022-09-28T05:55:48.886Z,94443.97
2022-09-28T05:58:16.229Z,94442.34
2022-09-28T06:00:43.416Z,94438.63
2022-09-28T06:03:14.649Z,94429.88
2022-09-28T06:05:41.720Z,94411.59
2022-09-28T06:08:13.091Z,94411.59
2022-09-28T06:10:40.260Z,94419.47
2022-09-28T06:13:07.323Z,94405.44
2022-09-28T06:15:35.516Z,94401.16
2022-09-28T06:18:16.776Z,94404.78
2022-09-28T06:20:44.170Z,94415.03
2022-09-28T06:23:12.552Z,94418.56
2022-09-28T06:25:39.842Z,94425.59
2022-09-28T06:28:10.356Z,94416.28
2022-09-28T06:30:38.580Z,94410.13
2022-09-28T06:33:08.363Z,94418.97
2022-09-28T06:35:35.509Z,94427.78
2022-09-28T06:38:02.316Z,94422.25
2022-09-28T06:40:29.385Z,94410.38
2022-09-28T06:42:57.338Z,94396.81
2022-09-28T06:45:25.604Z,94397.94
2022-09-28T06:48:00.634Z,94390.09
2022-09-28T06:50:32.340Z,94387.63
2022-09-28T06:53:00.192Z,94397.28
2022-09-28T06:55:27.767Z,94402.72
2022-09-28T06:58:09.547Z,94390.44
2022-09-28T07:00:37.614Z,94391.13
2022-09-28T07:03:07.418Z,94382.78
2022-09-28T07:05:36.910Z,94379.91
2022-09-28T07:08:06.490Z,94378.81
2022-09-28T07:10:33.744Z,94379.50
2022-09-28T07:13:02.985Z,94372.41
2022-09-28T07:15:30.075Z,94375.44
2022-09-28T07:18:06.663Z,94366.19
2022-09-28T07:20:45.276Z,94365.44
2022-09-28T07:23:19.318Z,94380.38
2022-09-28T07:25:47.955Z,94380.97
2022-09-28T07:28:15.254Z,94385.06
2022-09-28T07:30:44.297Z,94382.31
2022-09-28T07:33:14.427Z,94382.59
2022-09-28T07:35:44.230Z,94383.75
2022-09-28T07:38:11.407Z,94395.47
2022-09-28T07:40:56.818Z,94405.41
2022-09-28T07:43:23.569Z,94413.91
2022-09-28T07:45:53.001Z,94415.97
2022-09-28T07:48:20.286Z,94415.81
2022-09-28T07:50:54.277Z,94422.50
2022-09-28T07:53:24.896Z,94413.69
2022-09-28T07:55:53.072Z,94418.66
2022-09-28T07:58:20.850Z,94418.59
2022-09-28T08:00:49.301Z,94429.63
2022-09-28T08:03:17.582Z,94440.78
2022-09-28T08:05:44.577Z,94446.34
2022-09-28T08:08:11.264Z,94449.00
2022-09-28T08:10:38.326Z,94458.38
2022-09-28T08:13:06.547Z,94453.69
2022-09-28T08:15:36.960Z,94445.41
2022-09-28T08:18:05.098Z,94460.91
2022-09-28T08:20:51.868Z,94450.03
2022-09-28T08:23:20.359Z,94438.94
2022-09-28T08:25:50.957Z,94441.34
2022-09-28T08:28:17.968Z,94436.84
2022-09-28T08:30:45.885Z,94421.63
2022-09-28T08:33:23.215Z,94422.66
2022-09-28T08:36:00.384Z,94430.25
2022-09-28T08:38:31.453Z,94428.91
2022-09-28T08:41:16.263Z,94432.13
2022-09-28T08:44:01.405Z,94429.78
2022-09-28T08:46:40.454Z,94427.88
2022-09-28T08:49:26.713Z,94436.91
2022-09-28T08:51:59.826Z,94438.47
2022-09-28T08:54:54.931Z,94435.53
2022-09-28T08:57:30.304Z,94445.84
2022-09-28T08:59:59.858Z,94444.91
2022-09-28T09:02:33.804Z,94439.81
2022-09-28T09:05:05.040Z,94444.59
2022-09-28T09:07:34.509Z,94448.63
2022-09-28T09:10:22.088Z,94455.16
2022-09-28T09:13:27.187Z,94467.03
2022-09-28T09:16:08.249Z,94466.16
2022-09-28T09:18:52.944Z,94462.34
2022-09-28T09:21:42.701Z,94470.44
2022-09-28T09:24:21.585Z,94463.28
2022-09-28T09:26:54.617Z,94457.03
2022-09-28T09:29:40.189Z,94453.72
2022-09-28T09:32:21.086Z,94465.25
2022-09-28T09:35:00.745Z,94460.25
2022-09-28T09:37:56.542Z,94460.00
2022-09-28T09:40:46.616Z,94459.13
2022-09-28T09:43:31.858Z,94462.09
2022-09-28T09:46:15.762Z,94457.41
2022-09-28T09:48:59.715Z,94456.50
2022-09-28T09:51:30.005Z,94464.09
2022-09-28T09:54:02.024Z,94457.72
2022-09-28T09:56:44.494Z,94462.75
2022-09-28T09:59:18.796Z,94463.31
2022-09-28T10:01:46.114Z,94444.91
2022-09-28T10:04:21.099Z,94448.13
2022-09-28T10:06:50.635Z,94448.28
2022-09-28T10:09:24.482Z,94458.47
2022-09-28T10:11:52.085Z,94455.81
2022-09-28T10:14:24.126Z,94454.38
2022-09-28T10:16:54.397Z,94439.47
2022-09-28T10:19:33.092Z,94443.47
2022-09-28T10:22:04.840Z,94440.16
2022-09-28T10:24:35.880Z,94446.50
2022-09-28T10:27:11.721Z,94432.22
2022-09-28T10:30:04.567Z,94431.28
2022-09-28T10:32:45.311Z,94449.44
2022-09-28T10:35:19.635Z,94451.22
2022-09-28T10:38:04.478Z,94448.19
2022-09-28T10:41:10.505Z,94445.91
2022-09-28T10:44:10.289Z,94453.22
2022-09-28T10:46:39.270Z,94452.34
2022-09-28T10:49:41.098Z,94449.13
2022-09-28T10:52:31.557Z,94454.94
2022-09-28T10:54:58.141Z,94447.22
2022-09-28T10:57:29.551Z,94449.56
2022-09-28T10:59:56.122Z,94447.13
2022-09-28T11:02:30.295Z,94454.94
2022-09-28T11:05:02.126Z,94459.56
2022-09-28T11:07:32.219Z,94465.63
2022-09-28T11:10:01.240Z,94459.81
2022-09-28T11:12:37.122Z,94457.00
2022-09-28T11:15:07.227Z,94463.38
2022-09-28T11:17:40.543Z,94463.63
2022-09-28T11:20:27.780Z,94460.66
2022-09-28T11:22:58.701Z,94460.00
2022-09-28T11:25:27.551Z,94470.19
2022-09-28T11:27:54.058Z,94474.28
2022-09-28T11:30:24.958Z,94472.47
2022-09-28T11:32:54.322Z,94477.00
2022-09-28T11:35:25.326Z,94477.56
2022-09-28T11:38:03.113Z,94469.34
2022-09-28T11:41:08.946Z,94490.84
2022-09-28T11:43:41.325Z,94480.50
2022-09-28T11:46:39.846Z,94480.56
2022-09-28T11:49:25.009Z,94464.81
2022-09-28T11:51:55.360Z,94460.41
2022-09-28T11:54:31.447Z,94461.91
2022-09-28T11:57:01.817Z,94462.25
2022-09-28T11:59:38.804Z,94462.59
2022-09-28T12:02:58.771Z,94461.38
2022-09-28T12:05:52.052Z,94461.66
2022-09-28T12:08:27.349Z,94465.66
2022-09-28T12:11:02.840Z,94456.88
2022-09-28T12:13:37.298Z,94460.78
2022-09-28T12:19:23.483Z,94465.81
2022-09-28T12:21:55.506Z,94469.75
2022-09-28T12:24:28.844Z,94467.69
2022-09-28T12:27:03.319Z,94463.06
2022-09-28T12:29:55.022Z,94456.13
2022-09-28T12:32:38.525Z,94456.31
2022-09-28T12:35:31.514Z,94454.31
2022-09-28T12:38:31.619Z,94457.31
2022-09-28T12:41:23.351Z,94454.97
2022-09-28T12:44:08.455Z,94459.94
2022-09-28T12:47:06.270Z,94467.59
2022-09-28T12:53:02.335Z,94470.53
2022-09-28T12:55:36.165Z,94467.75
2022-09-28T12:58:32.891Z,94481.53
2022-09-28T13:01:20.903Z,94491.31
2022-09-28T13:04:15.136Z,94496.00
2022-09-28T13:06:56.155Z,94491.94
2022-09-28T13:09:25.141Z,94497.16
2022-09-28T13:11:55.614Z,94496.53
2022-09-28T13:14:44.134Z,94501.06
2022-09-28T13:17:38.828Z,94496.91
2022-09-28T13:20:25.149Z,94510.16
2022-09-28T13:23:07.350Z,94504.81
2022-09-28T13:25:36.407Z,94505.88
2022-09-28T13:28:05.936Z,94509.44
2022-09-28T13:30:39.004Z,94531.53
2022-09-28T13:33:07.331Z,94527.31
2022-09-28T13:35:34.975Z,94535.34
2022-09-28T13:38:17.482Z,94534.16
2022-09-28T13:41:06.266Z,94535.81
2022-09-28T13:43:54.639Z,94544.78
2022-09-28T13:46:33.603Z,94547.06
2022-09-28T13:49:18.503Z,94556.50
2022-09-28T13:52:06.778Z,94547.91
2022-09-28T13:54:45.158Z,94543.53
2022-09-28T13:57:11.694Z,94549.97
2022-09-28T14:00:07.520Z,94548.81
2022-09-28T14:03:06.223Z,94552.47
2022-09-28T14:06:08.330Z,94554.88
2022-09-28T14:08:44.236Z,94546.47
2022-09-28T14:11:25.002Z,94542.81
2022-09-28T14:13:58.846Z,94546.84
2022-09-28T14:16:28.500Z,94545.84
2022-09-28T14:19:10.150Z,94539.75
2022-09-28T14:22:00.010Z,94542.69
2022-09-28T14:24:59.885Z,94547.53
2022-09-28T14:28:00.287Z,94548.06
2022-09-28T14:30:48.567Z,94546.97
2022-09-28T14:33:21.393Z,94539.38
2022-09-28T14:36:02.096Z,94539.50
2022-09-28T14:38:55.503Z,94532.94
2022-09-28T14:41:31.346Z,94539.75
2022-09-28T14:43:59.527Z,94538.03
2022-09-28T14:46:28.601Z,94543.94
2022-09-28T14:49:17.580Z,94544.91
2022-09-28T14:51:47.264Z,94554.34
2022-09-28T14:54:22.564Z,94557.38
2022-09-28T14:56:52.188Z,94560.41
2022-09-28T14:59:36.066Z,94559.69
2022-09-28T15:02:24.898Z,94556.59
2022-09-28T15:04:55.893Z,94560.97
2022-09-28T15:07:48.024Z,94560.00
2022-09-28T15:10:27.464Z,94560.69
2022-09-28T15:12:56.864Z,94566.34
2022-09-28T15:15:28.853Z,94569.03
2022-09-28T15:18:08.561Z,94569.09
2022-09-28T15:20:42.066Z,94565.78
2022-09-28T15:23:23.886Z,94567.94
2022-09-28T15:25:55.035Z,94561.06
2022-09-28T15:28:24.295Z,94566.84
2022-09-28T15:30:51.935Z,94560.38
2022-09-28T15:33:42.839Z,94563.50
2022-09-28T15:36:24.317Z,94572.69
2022-09-28T15:39:02.376Z,94565.34
2022-09-28T15:41:29.659Z,94567.75
2022-09-28T15:44:12.768Z,94567.00
2022-09-28T15:46:56.879Z,94560.44
2022-09-28T15:49:39.091Z,94566.28
2022-09-28T15:52:06.273Z,94565.84
2022-09-28T15:54:44.454Z,94559.25
2022-09-28T15:57:37.041Z,94559.59
2022-09-28T16:00:22.632Z,94561.34
2022-09-28T16:03:01.783Z,94550.66
2022-09-28T16:06:11.786Z,94562.31
2022-09-28T16:08:43.720Z,94572.69
2022-09-28T16:11:26.263Z,94583.00
2022-09-28T16:14:28.208Z,94572.66
2022-09-28T16:16:55.299Z,94573.44
2022-09-28T16:19:27.558Z,94579.50
2022-09-28T16:22:02.051Z,94585.94
2022-09-28T16:24:33.919Z,94590.13
2022-09-28T16:27:22.202Z,94596.44
2022-09-28T16:30:17.251Z,94598.66
2022-09-28T16:32:52.934Z,94592.75
2022-09-28T16:35:49.852Z,94605.97
2022-09-28T16:38:18.223Z,94607.19
2022-09-28T16:40:50.801Z,94612.47
2022-09-28T16:43:27.010Z,94599.78
2022-09-28T16:45:59.383Z,94615.09
2022-09-28T16:48:28.571Z,94614.66
2022-09-28T16:50:56.195Z,94610.75
2022-09-28T16:53:41.627Z,94613.97
2022-09-28T16:56:08.527Z,94624.81
2022-09-28T16:58:37.120Z,94630.22
2022-09-28T17:01:03.933Z,94623.69
2022-09-28T17:03:30.784Z,94622.75
2022-09-28T17:05:57.442Z,94610.13
2022-09-28T17:08:25.169Z,94617.09
2022-09-28T17:13:47.208Z,94632.22
2022-09-28T17:16:42.643Z,94632.75
2022-09-28T17:19:23.748Z,94634.88
2022-09-28T17:21:51.831Z,94634.28
2022-09-28T17:24:19.486Z,94632.75
2022-09-28T17:26:47.747Z,94633.88
2022-09-28T17:29:15.879Z,94640.47
2022-09-28T17:31:43.822Z,94637.44
2022-09-28T17:34:12.169Z,94639.34
2022-09-28T17:36:41.039Z,94626.28
2022-09-28T17:39:14.681Z,94627.41
2022-09-28T17:41:41.555Z,94642.81
2022-09-28T17:44:08.738Z,94647.00
2022-09-28T17:46:45.802Z,94656.41
2022-09-28T17:49:12.836Z,94648.56
2022-09-28T17:51:39.530Z,94653.25
2022-09-28T17:54:08.171Z,94661.78
2022-09-28T17:56:36.139Z,94650.81
2022-09-28T17:59:05.715Z,94663.19
2022-09-28T18:01:36.185Z,94658.28
2022-09-28T18:04:05.027Z,94675.16
2022-09-28T18:06:37.316Z,94666.63
2022-09-28T18:09:04.872Z,94657.25
2022-09-28T18:11:33.310Z,94657.25
2022-09-28T18:14:00.681Z,94660.09
2022-09-28T18:16:28.947Z,94650.28
2022-09-28T18:18:55.916Z,94640.88
2022-09-28T18:21:22.562Z,94645.59
2022-09-28T18:23:49.169Z,94654.25
2022-09-28T18:26:16.857Z,94665.19
2022-09-28T18:28:43.479Z,94665.16
2022-09-28T18:31:12.317Z,94656.69
2022-09-28T18:33:39.755Z,94663.53
2022-09-28T18:36:07.506Z,94662.75
2022-09-28T18:38:37.931Z,94657.81
2022-09-28T18:41:15.941Z,94660.97
2022-09-28T18:43:48.926Z,94660.56
2022-09-28T18:46:18.176Z,94671.59
2022-09-28T18:48:44.952Z,94662.66
2022-09-28T18:51:12.623Z,94668.69
2022-09-28T18:53:40.036Z,94669.84
2022-09-28T18:56:08.477Z,94669.63
2022-09-28T18:58:37.052Z,94665.34
2022-09-28T19:04:17.006Z,94661.59
2022-09-28T19:06:44.742Z,94659.28
2022-09-28T19:09:12.341Z,94663.66
2022-09-28T19:11:39.005Z,94659.75
2022-09-28T19:14:05.688Z,94669.84
2022-09-28T19:16:34.115Z,94674.31
2022-09-28T19:19:03.084Z,94670.22
2022-09-28T19:21:30.735Z,94668.25
2022-09-28T19:24:00.980Z,94670.50
2022-09-28T19:26:28.634Z,94658.47
2022-09-28T19:28:58.971Z,94656.63
2022-09-28T19:31:26.966Z,94668.03
2022-09-28T19:33:53.754Z,94661.81
2022-09-28T19:36:24.062Z,94663.84
2022-09-28T19:38:52.731Z,94670.34
2022-09-28T19:41:43.578Z,94666.56
2022-09-28T19:44:24.412Z,94674.31
2022-09-28T19:46:59.242Z,94672.38
2022-09-28T19:49:27.799Z,94680.47
2022-09-28T19:52:15.161Z,94689.47
2022-09-28T19:55:00.255Z,94698.66
2022-09-28T19:57:29.333Z,94701.25
2022-09-28T20:00:01.798Z,94706.84
2022-09-28T20:02:29.505Z,94697.09
2022-09-28T20:04:56.190Z,94704.81
2022-09-28T20:07:22.815Z,94699.31
2022-09-28T20:09:49.376Z,94702.25
2022-09-28T20:12:15.947Z,94714.25
2022-09-28T20:14:42.534Z,94718.94
2022-09-28T20:17:09.955Z,94719.50
2022-09-28T20:19:36.623Z,94720.94
2022-09-28T20:22:04.029Z,94729.44
2022-09-28T20:24:31.659Z,94729.91
2022-09-28T20:26:58.982Z,94734.91
2022-09-28T20:29:25.645Z,94744.00
2022-09-28T20:31:52.475Z,94742.41
2022-09-28T20:34:19.159Z,94756.56
2022-09-28T20:36:45.772Z,94756.81
2022-09-28T20:39:12.744Z,94760.16
2022-09-28T20:41:39.896Z,94762.75
2022-09-28T20:44:07.011Z,94768.50
2022-09-28T20:46:34.952Z,94773.69
2022-09-28T20:49:01.943Z,94776.28
2022-09-28T20:51:28.692Z,94775.72
2022-09-28T20:53:57.083Z,94780.91
2022-09-28T20:56:25.985Z,94789.94
2022-09-28T20:58:53.243Z,94782.09
2022-09-28T21:01:25.276Z,94786.91
2022-09-28T21:03:57.121Z,94796.56
2022-09-28T21:06:26.410Z,94805.72
2022-09-28T21:08:53.444Z,94805.31
2022-09-28T21:11:22.653Z,94805.59
2022-09-28T21:13:53.349Z,94810.16
2022-09-28T21:16:20.121Z,94814.63
2022-09-28T21:18:47.567Z,94819.22
2022-09-28T21:21:17.131Z,94816.13
2022-09-28T21:23:45.020Z,94828.38
2022-09-28T21:26:24.430Z,94830.75
2022-09-28T21:28:53.958Z,94830.66
2022-09-28T21:31:24.903Z,94834.06
2022-09-28T21:33:55.245Z,94839.91
2022-09-28T21:36:21.886Z,94840.00
2022-09-28T21:38:49.356Z,94850.91
2022-09-28T21:41:16.497Z,94848.81
2022-09-28T21:43:43.075Z,94856.13
2022-09-28T21:46:10.439Z,94851.53
2022-09-28T21:48:37.066Z,94850.75
2022-09-28T21:51:06.395Z,94850.75
2022-09-28T21:53:37.886Z,94856.00
2022-09-28T21:56:06.627Z,94858.78
2022-09-28T21:58:34.523Z,94855.47
2022-09-28T22:01:04.316Z,94857.94
2022-09-28T22:03:32.328Z,94866.00
2022-09-28T22:05:59.455Z,94858.25
2022-09-28T22:08:26.763Z,94859.06
2022-09-28T22:11:08.531Z,94861.25
2022-09-28T22:13:46.528Z,94868.13
2022-09-28T22:16:15.008Z,94865.63
2022-09-28T22:18:42.217Z,94873.16
2022-09-28T22:21:26.708Z,94871.22
2022-09-28T22:23:53.525Z,94864.19
2022-09-28T22:26:23.494Z,94865.50
2022-09-28T22:28:58.186Z,94862.41
2022-09-28T22:31:39.701Z,94860.59
2022-09-28T22:34:07.506Z,94867.13
2022-09-28T22:36:34.693Z,94864.47
2022-09-28T22:39:02.383Z,94856.75
2022-09-28T22:41:29.195Z,94867.34
2022-09-28T22:43:56.176Z,94867.19
2022-09-28T22:46:25.641Z,94868.78
2022-09-28T22:48:54.966Z,94871.25
2022-09-28T22:51:22.823Z,94873.84
2022-09-28T22:53:49.811Z,94871.66
2022-09-28T22:56:19.054Z,94876.50
2022-09-28T22:58:46.554Z,94875.84
2022-09-28T23:01:19.283Z,94874.34
2022-09-28T23:03:46.531Z,94884.78
2022-09-28T23:06:16.589Z,94882.63
2022-09-28T23:08:44.802Z,94887.81
2022-09-28T23:11:11.845Z,94888.13
2022-09-28T23:13:38.530Z,94884.78
2022-09-28T23:16:11.542Z,94884.22
2022-09-28T23:18:42.490Z,94889.25
2022-09-28T23:21:17.699Z,94888.47
2022-09-28T23:23:45.642Z,94878.13
2022-09-28T23:26:17.392Z,94877.59
2022-09-28T23:28:44.609Z,94891.16
2022-09-28T23:31:23.249Z,94882.53
2022-09-28T23:33:50.563Z,94893.75
2022-09-28T23:36:18.121Z,94892.97
2022-09-28T23:38:44.850Z,94893.13
2022-09-28T23:41:11.642Z,94886.50
2022-09-28T23:43:38.388Z,94880.03
2022-09-28T23:46:05.853Z,94879.63
2022-09-28T23:48:32.581Z,94876.91
2022-09-28T23:50:59.748Z,94882.84
2022-09-28T23:53:26.463Z,94878.03
2022-09-28T23:55:53.340Z,94882.38
2022-09-28T23:58:20.003Z,94885.53
